Time;durP1;ratioP1;P1;durP2;ratioP2;P2;SDS_P1;SDS_P2;PMS_P1;PMS_P2;Temp;Humidity;BMP_temperature;BMP_pressure;BME280_temperature;BME280_humidity;BME280_pressure;Samples;Min_cycle;Max_cycle;Signal;HPM_P1;HPM_P2
2021/11/07 00:04:57;;;;;;;3.87;3.57;;;;;;;;;;4995704;28;20913;-49
2021/11/07 00:07:36;;;;;;;9.80;3.57;;;;;;;;;;4995125;28;20424;-49
2021/11/07 00:10:06;;;;;;;3.27;2.80;;;;;;;;;;4995398;28;20482;-50
2021/11/07 00:12:37;;;;;;;5.03;3.20;;;;;;;;;;4995374;28;20408;-49
2021/11/07 00:15:03;;;;;;;3.93;2.97;;;;;;;;;;4995299;28;20420;-49
2021/11/07 00:17:31;;;;;;;3.27;3.07;;;;;;;;;;4994989;28;20419;-49
2021/11/07 00:20:10;;;;;;;3.70;3.40;;;;;;;;;;4995188;28;20415;-51
2021/11/07 00:22:47;;;;;;;4.43;3.40;;;;;;;;;;4995214;28;20412;-49
2021/11/07 00:25:31;;;;;;;4.40;3.37;;;;;;;;;;4995097;28;20423;-50
2021/11/07 00:28:01;;;;;;;3.97;3.30;;;;;;;;;;4994743;28;20447;-50
2021/11/07 00:30:46;;;;;;;3.40;3.10;;;;;;;;;;4995117;28;20773;-49
2021/11/07 00:36:26;;;;;;;5.17;3.93;;;;;;;;;;4994725;28;20450;-49
2021/11/07 00:38:55;;;;;;;6.43;4.03;;;;;;;;;;4993993;28;20903;-49
2021/11/07 00:43:57;;;;;;;5.27;3.80;;;;;;;;;;4994915;28;20419;-50
2021/11/07 00:46:31;;;;;;;7.03;4.03;;;;;;;;;;4994569;28;20450;-49
2021/11/07 00:49:33;;;;;;;5.00;4.50;;;;;;;;;;4994456;28;20541;-50
2021/11/07 00:55:02;;;;;;;6.13;5.30;;;;;;;;;;4934544;29;21055;-51
2021/11/07 01:00:04;;;;;;;5.60;5.00;;;;;;;;;;4965812;28;20418;-51
2021/11/07 01:02:32;;;;;;;5.70;4.83;;;;;;;;;;4994946;28;20399;-50
2021/11/07 01:04:59;;;;;;;7.33;5.23;;;;;;;;;;4994402;28;20461;-49
2021/11/07 01:07:25;;;;;;;6.53;5.87;;;;;;;;;;4994707;28;20499;-48
2021/11/07 01:09:55;;;;;;;5.30;4.80;;;;;;;;;;4994301;28;20404;-50
2021/11/07 01:12:24;;;;;;;9.37;5.70;;;;;;;;;;4994315;28;20395;-51
2021/11/07 01:14:51;;;;;;;7.53;5.50;;;;;;;;;;4993521;28;20442;-50
2021/11/07 01:17:19;;;;;;;10.83;6.13;;;;;;;;;;4994095;28;20902;-49
2021/11/07 01:19:47;;;;;;;6.87;5.40;;;;;;;;;;4993956;28;20443;-50
2021/11/07 01:22:17;;;;;;;7.27;5.70;;;;;;;;;;4994119;28;20403;-51
2021/11/07 01:24:56;;;;;;;9.83;5.90;;;;;;;;;;4994142;28;20408;-51
2021/11/07 01:27:45;;;;;;;6.90;6.30;;;;;;;;;;4993816;28;20423;-49
2021/11/07 01:30:15;;;;;;;7.83;5.87;;;;;;;;;;4993155;28;20442;-49
2021/11/07 01:32:45;;;;;;;8.90;5.90;;;;;;;;;;4993940;28;20411;-50
2021/11/07 01:35:25;;;;;;;7.30;6.00;;;;;;;;;;4993825;28;20483;-49
2021/11/07 01:40:21;;;;;;;7.20;6.30;;;;;;;;;;4993809;28;20394;-50
2021/11/07 01:42:55;;;;;;;7.80;6.00;;;;;;;;;;4993566;28;20937;-49
2021/11/07 01:45:27;;;;;;;10.50;7.17;;;;;;;;;;4993602;28;20446;-49
2021/11/07 01:48:02;;;;;;;8.87;5.80;;;;;;;;;;4992472;28;20470;-51
2021/11/07 01:50:29;;;;;;;8.70;5.80;;;;;;;;;;4993818;28;20406;-51
2021/11/07 01:53:05;;;;;;;7.20;6.47;;;;;;;;;;4993437;28;20396;-50
2021/11/07 01:55:31;;;;;;;8.00;6.60;;;;;;;;;;4993500;28;20923;-50
2021/11/07 01:57:57;;;;;;;7.33;6.47;;;;;;;;;;4993174;28;20456;-51
2021/11/07 02:00:25;;;;;;;6.77;6.00;;;;;;;;;;4993454;28;20493;-49
2021/11/07 02:02:51;;;;;;;12.50;7.33;;;;;;;;;;4992820;28;20407;-49
2021/11/07 02:05:17;;;;;;;9.40;6.13;;;;;;;;;;4992532;28;20400;-49
2021/11/07 02:07:43;;;;;;;8.13;6.50;;;;;;;;;;4991711;28;20410;-50
2021/11/07 02:10:10;;;;;;;6.53;5.90;;;;;;;;;;4992806;28;20403;-51
2021/11/07 02:12:36;;;;;;;10.50;7.20;;;;;;;;;;4993251;28;20903;-51
2021/11/07 02:15:06;;;;;;;9.60;6.57;;;;;;;;;;4993095;28;20944;-50
2021/11/07 02:17:32;;;;;;;8.87;7.40;;;;;;;;;;4992840;28;20400;-51
2021/11/07 02:20:00;;;;;;;7.00;6.30;;;;;;;;;;4993462;28;20417;-51
2021/11/07 02:22:26;;;;;;;9.63;6.50;;;;;;;;;;4993223;28;20822;-50
2021/11/07 02:24:53;;;;;;;8.57;6.60;;;;;;;;;;4992850;28;20490;-50
2021/11/07 02:27:19;;;;;;;11.50;7.37;;;;;;;;;;4992771;28;20477;-49
2021/11/07 02:29:45;;;;;;;9.80;7.07;;;;;;;;;;4992718;28;21017;-49
2021/11/07 02:32:10;;;;;;;10.07;6.43;;;;;;;;;;4992975;28;20432;-49
2021/11/07 02:34:37;;;;;;;6.97;6.27;;;;;;;;;;4992524;28;20423;-49
2021/11/07 02:37:03;;;;;;;6.73;5.90;;;;;;;;;;4992470;28;20490;-51
2021/11/07 02:39:29;;;;;;;7.83;6.70;;;;;;;;;;4992268;28;20499;-49
2021/11/07 02:41:55;;;;;;;7.53;6.70;;;;;;;;;;4992713;28;20400;-50
2021/11/07 02:44:29;;;;;;;13.03;6.33;;;;;;;;;;4993125;28;20403;-49
2021/11/07 02:46:55;;;;;;;9.87;6.37;;;;;;;;;;4992601;28;20834;-51
2021/11/07 02:49:21;;;;;;;7.30;6.20;;;;;;;;;;4992336;28;20459;-49
2021/11/07 02:51:47;;;;;;;8.23;6.60;;;;;;;;;;4992722;28;20457;-51
2021/11/07 02:54:13;;;;;;;7.60;6.33;;;;;;;;;;4992629;28;20453;-51
2021/11/07 02:56:39;;;;;;;7.20;6.20;;;;;;;;;;4992499;28;20424;-50
2021/11/07 02:59:08;;;;;;;8.57;6.60;;;;;;;;;;4992366;28;20411;-50
2021/11/07 03:01:35;;;;;;;7.90;6.53;;;;;;;;;;4992521;28;20450;-51
2021/11/07 03:04:06;;;;;;;8.43;6.50;;;;;;;;;;4992370;28;20911;-51
2021/11/07 03:06:33;;;;;;;7.90;6.20;;;;;;;;;;4992382;28;20424;-50
2021/11/07 03:08:59;;;;;;;8.17;7.23;;;;;;;;;;4992430;28;20814;-49
2021/11/07 03:11:25;;;;;;;7.83;7.03;;;;;;;;;;4992596;28;20405;-49
2021/11/07 03:13:51;;;;;;;7.97;6.90;;;;;;;;;;4992428;28;20659;-50
2021/11/07 03:16:17;;;;;;;11.90;6.60;;;;;;;;;;4992317;28;20450;-50
2021/11/07 03:18:44;;;;;;;8.07;7.27;;;;;;;;;;4992309;28;20450;-49
2021/11/07 03:21:11;;;;;;;9.77;6.20;;;;;;;;;;4992479;28;20945;-50
2021/11/07 03:23:39;;;;;;;7.63;6.90;;;;;;;;;;4992538;28;20515;-49
2021/11/07 03:26:14;;;;;;;10.07;8.40;;;;;;;;;;4992371;28;20929;-50
2021/11/07 03:28:42;;;;;;;8.63;7.73;;;;;;;;;;4992011;28;20443;-49
2021/11/07 03:33:42;;;;;;;10.23;9.13;;;;;;;;;;4992291;28;20546;-49
2021/11/07 03:36:09;;;;;;;11.00;9.60;;;;;;;;;;4992294;28;20999;-49
2021/11/07 03:38:35;;;;;;;10.30;9.30;;;;;;;;;;4994560;28;20450;-50
2021/11/07 03:41:02;;;;;;;10.20;9.10;;;;;;;;;;4995978;28;20974;-51
2021/11/07 03:43:29;;;;;;;11.17;10.00;;;;;;;;;;4995920;28;20400;-49
2021/11/07 03:45:56;;;;;;;12.00;10.70;;;;;;;;;;4995812;28;20457;-50
2021/11/07 03:48:22;;;;;;;10.40;9.40;;;;;;;;;;4995426;28;20479;-50
2021/11/07 03:50:48;;;;;;;11.47;9.37;;;;;;;;;;4995968;28;20495;-50
2021/11/07 03:53:15;;;;;;;9.43;8.53;;;;;;;;;;4995889;28;20408;-50
2021/11/07 03:55:41;;;;;;;12.30;11.07;;;;;;;;;;4995801;28;20424;-49
2021/11/07 03:58:07;;;;;;;11.70;10.33;;;;;;;;;;4995357;28;20443;-51
2021/11/07 04:00:34;;;;;;;11.27;10.13;;;;;;;;;;4995665;28;20463;-49
2021/11/07 04:03:00;;;;;;;13.80;11.17;;;;;;;;;;4995862;28;20839;-49
2021/11/07 04:05:26;;;;;;;14.53;11.50;;;;;;;;;;4995551;28;20424;-49
2021/11/07 04:07:52;;;;;;;17.50;11.80;;;;;;;;;;4995454;28;20434;-49
2021/11/07 04:10:19;;;;;;;13.23;11.83;;;;;;;;;;4995374;28;20793;-49
2021/11/07 04:12:45;;;;;;;14.13;11.50;;;;;;;;;;4995425;28;20400;-49
2021/11/07 04:15:11;;;;;;;12.33;11.10;;;;;;;;;;4995377;28;20431;-48
2021/11/07 04:17:37;;;;;;;12.63;11.33;;;;;;;;;;4995065;28;20414;-48
2021/11/07 04:20:07;;;;;;;13.90;12.40;;;;;;;;;;4995777;28;20404;-49
2021/11/07 04:22:33;;;;;;;12.37;11.17;;;;;;;;;;4995217;28;20915;-49
2021/11/07 04:25:00;;;;;;;12.57;11.27;;;;;;;;;;4995143;28;20396;-48
2021/11/07 04:27:26;;;;;;;13.03;11.73;;;;;;;;;;4994759;28;20424;-49
2021/11/07 04:29:52;;;;;;;13.20;11.83;;;;;;;;;;4995032;28;20475;-49
2021/11/07 04:32:21;;;;;;;14.90;11.83;;;;;;;;;;4995021;28;20900;-49
2021/11/07 04:34:47;;;;;;;14.67;12.20;;;;;;;;;;4995072;28;20499;-49
2021/11/07 04:37:13;;;;;;;13.90;12.40;;;;;;;;;;4994775;28;20949;-49
2021/11/07 04:39:39;;;;;;;16.10;12.60;;;;;;;;;;4994807;28;20405;-49
2021/11/07 04:42:05;;;;;;;13.90;12.40;;;;;;;;;;4994901;28;20817;-49
2021/11/07 04:44:31;;;;;;;15.27;13.53;;;;;;;;;;4994874;28;20400;-49
2021/11/07 04:47:01;;;;;;;15.60;13.07;;;;;;;;;;4994631;28;20428;-51
2021/11/07 04:49:27;;;;;;;14.90;12.30;;;;;;;;;;4993182;28;20513;-49
2021/11/07 04:51:53;;;;;;;16.60;13.03;;;;;;;;;;4995121;28;20415;-48
2021/11/07 04:54:19;;;;;;;14.40;12.93;;;;;;;;;;4994531;28;20400;-49
2021/11/07 04:56:46;;;;;;;14.50;12.97;;;;;;;;;;4977020;28;20939;-48
2021/11/07 04:59:12;;;;;;;15.80;12.90;;;;;;;;;;4994353;28;20412;-49
2021/11/07 05:01:38;;;;;;;17.87;13.23;;;;;;;;;;4994471;28;20767;-49
2021/11/07 05:04:05;;;;;;;15.70;13.50;;;;;;;;;;4994509;28;20491;-49
2021/11/07 05:06:31;;;;;;;13.77;12.37;;;;;;;;;;4994256;28;20424;-51
2021/11/07 05:08:57;;;;;;;17.20;12.73;;;;;;;;;;4993998;28;20525;-50
2021/11/07 05:11:23;;;;;;;13.77;11.70;;;;;;;;;;4994312;28;20404;-51
2021/11/07 05:13:49;;;;;;;13.50;12.20;;;;;;;;;;4994329;28;20477;-49
2021/11/07 05:16:15;;;;;;;14.07;12.43;;;;;;;;;;4994155;28;20502;-50
2021/11/07 05:18:42;;;;;;;14.40;11.33;;;;;;;;;;4993925;28;20498;-50
2021/11/07 05:21:08;;;;;;;19.23;12.27;;;;;;;;;;4994652;28;20400;-49
2021/11/07 05:23:34;;;;;;;12.50;11.20;;;;;;;;;;4994052;28;20409;-51
2021/11/07 05:25:59;;;;;;;13.27;11.77;;;;;;;;;;4994046;28;20424;-49
2021/11/07 05:28:26;;;;;;;13.97;11.77;;;;;;;;;;4993578;28;20474;-49
2021/11/07 05:30:52;;;;;;;14.00;11.67;;;;;;;;;;4994006;28;20895;-49
2021/11/07 05:33:18;;;;;;;15.77;11.40;;;;;;;;;;4993865;28;20407;-50
2021/11/07 05:35:45;;;;;;;11.93;10.20;;;;;;;;;;4993658;28;20437;-51
2021/11/07 05:38:11;;;;;;;13.13;11.63;;;;;;;;;;4994240;28;20412;-48
2021/11/07 05:40:37;;;;;;;15.90;11.50;;;;;;;;;;4993810;28;20927;-48
2021/11/07 05:43:03;;;;;;;13.37;10.80;;;;;;;;;;4993741;28;20915;-48
2021/11/07 05:45:29;;;;;;;14.20;11.27;;;;;;;;;;4993534;28;20789;-48
2021/11/07 05:47:55;;;;;;;13.67;11.47;;;;;;;;;;4993229;28;20883;-48
2021/11/07 05:50:22;;;;;;;13.47;11.27;;;;;;;;;;4993453;28;20410;-47
2021/11/07 05:52:48;;;;;;;16.70;12.10;;;;;;;;;;4993545;28;20462;-47
2021/11/07 05:55:14;;;;;;;14.77;11.50;;;;;;;;;;4993342;28;20447;-47
2021/11/07 05:57:41;;;;;;;11.87;10.60;;;;;;;;;;4993152;28;20400;-47
2021/11/07 06:00:08;;;;;;;14.70;11.50;;;;;;;;;;4992943;28;20401;-48
2021/11/07 06:02:34;;;;;;;14.20;11.37;;;;;;;;;;4993306;28;20491;-48
2021/11/07 06:05:00;;;;;;;15.23;12.20;;;;;;;;;;4993155;28;20487;-50
2021/11/07 06:07:26;;;;;;;14.90;11.90;;;;;;;;;;4992829;28;20924;-50
2021/11/07 06:09:52;;;;;;;14.57;11.80;;;;;;;;;;4993133;28;20775;-47
2021/11/07 06:12:18;;;;;;;18.33;10.80;;;;;;;;;;4993153;28;20404;-48
2021/11/07 06:14:44;;;;;;;15.97;13.37;;;;;;;;;;4993133;28;20432;-48
2021/11/07 06:17:11;;;;;;;13.53;10.70;;;;;;;;;;4992915;28;20499;-49
2021/11/07 06:19:37;;;;;;;13.10;10.00;;;;;;;;;;4992777;28;20407;-48
2021/11/07 06:22:03;;;;;;;14.63;11.20;;;;;;;;;;4993004;28;20408;-49
2021/11/07 06:24:29;;;;;;;13.73;10.77;;;;;;;;;;4992970;28;20890;-48
2021/11/07 06:26:57;;;;;;;15.37;11.77;;;;;;;;;;4992768;28;20424;-49
2021/11/07 06:29:23;;;;;;;15.97;12.33;;;;;;;;;;4992544;28;20546;-47
2021/11/07 06:31:51;;;;;;;17.63;13.93;;;;;;;;;;4992882;28;20779;-48
2021/11/07 06:34:17;;;;;;;17.07;15.27;;;;;;;;;;4992729;28;20400;-48
2021/11/07 06:36:43;;;;;;;20.73;15.40;;;;;;;;;;4992615;28;20522;-48
2021/11/07 06:39:09;;;;;;;21.30;15.40;;;;;;;;;;4992554;28;20409;-48
2021/11/07 06:41:35;;;;;;;24.53;15.07;;;;;;;;;;4992737;28;20411;-48
2021/11/07 06:44:01;;;;;;;17.83;14.47;;;;;;;;;;4992641;28;20490;-48
2021/11/07 06:46:28;;;;;;;17.13;13.23;;;;;;;;;;4992556;28;20452;-48
2021/11/07 06:48:54;;;;;;;16.97;12.83;;;;;;;;;;4992231;28;20975;-47
2021/11/07 06:51:21;;;;;;;14.83;11.53;;;;;;;;;;4992596;28;20423;-48
2021/11/07 06:53:48;;;;;;;17.30;11.97;;;;;;;;;;4992593;28;20540;-47
2021/11/07 06:56:14;;;;;;;16.60;12.27;;;;;;;;;;4992476;28;20420;-48
2021/11/07 06:58:41;;;;;;;13.37;11.50;;;;;;;;;;4992213;28;20412;-47
2021/11/07 07:01:07;;;;;;;13.93;12.37;;;;;;;;;;4992765;28;20771;-47
2021/11/07 07:03:33;;;;;;;14.27;12.07;;;;;;;;;;4992443;28;20408;-47
2021/11/07 07:06:00;;;;;;;17.33;13.23;;;;;;;;;;4992399;28;20428;-47
2021/11/07 07:08:31;;;;;;;18.27;13.40;;;;;;;;;;4992064;28;20451;-48
2021/11/07 07:11:05;;;;;;;16.77;13.83;;;;;;;;;;4992531;28;20562;-48
2021/11/07 07:13:39;;;;;;;16.93;13.30;;;;;;;;;;4994982;28;20396;-48
2021/11/07 07:16:25;;;;;;;18.27;13.67;;;;;;;;;;4978859;28;20439;-48
2021/11/07 07:34:40;;;;;;;21.47;13.67;;;;;;;;;;4996039;28;20487;-47
2021/11/07 07:37:06;;;;;;;20.70;13.80;;;;;;;;;;4996158;28;20567;-48
2021/11/07 07:39:32;;;;;;;23.17;13.83;;;;;;;;;;4995813;28;20448;-48
2021/11/07 07:41:58;;;;;;;20.10;14.57;;;;;;;;;;4995927;28;20408;-48
2021/11/07 07:44:24;;;;;;;17.33;13.53;;;;;;;;;;4995816;28;20442;-49
2021/11/07 07:46:51;;;;;;;20.50;16.67;;;;;;;;;;4995706;28;20424;-48
2021/11/07 07:49:18;;;;;;;23.63;16.77;;;;;;;;;;4995487;28;20451;-48
2021/11/07 07:51:45;;;;;;;24.30;15.43;;;;;;;;;;4995776;28;20404;-48
2021/11/07 07:54:11;;;;;;;23.87;16.90;;;;;;;;;;4995741;28;20399;-49
2021/11/07 07:56:38;;;;;;;27.63;16.07;;;;;;;;;;4995585;28;20434;-49
2021/11/07 07:59:05;;;;;;;23.70;17.00;;;;;;;;;;4995480;28;20404;-50
2021/11/07 08:01:31;;;;;;;23.70;17.50;;;;;;;;;;4995181;28;20419;-52
2021/11/07 08:03:57;;;;;;;21.47;15.67;;;;;;;;;;4994694;28;20413;-46
2021/11/07 08:06:23;;;;;;;21.63;16.00;;;;;;;;;;4994756;28;20461;-49
2021/11/07 08:08:49;;;;;;;24.23;16.63;;;;;;;;;;4995245;28;20823;-48
2021/11/07 08:11:15;;;;;;;20.23;16.27;;;;;;;;;;4995410;28;20910;-48
2021/11/07 08:13:47;;;;;;;20.40;16.80;;;;;;;;;;4995292;28;20400;-48
2021/11/07 08:16:14;;;;;;;23.40;15.90;;;;;;;;;;4995015;28;20501;-48
2021/11/07 08:18:42;;;;;;;32.33;17.57;;;;;;;;;;4995012;28;20408;-50
2021/11/07 08:21:07;;;;;;;30.40;17.20;;;;;;;;;;4995338;28;20404;-48
2021/11/07 08:23:34;;;;;;;26.00;18.27;;;;;;;;;;4994857;28;20431;-48
2021/11/07 08:26:02;;;;;;;23.20;17.47;;;;;;;;;;4995107;28;20842;-48
2021/11/07 08:28:30;;;;;;;28.43;18.90;;;;;;;;;;4994732;28;20479;-48
2021/11/07 08:31:05;;;;;;;27.87;18.80;;;;;;;;;;4994992;28;20436;-48
2021/11/07 08:33:31;;;;;;;27.00;18.67;;;;;;;;;;4995078;28;20400;-48
2021/11/07 08:36:04;;;;;;;28.20;19.70;;;;;;;;;;4994833;28;20440;-48
2021/11/07 08:38:36;;;;;;;29.90;18.30;;;;;;;;;;4994636;28;20466;-48
2021/11/07 08:41:03;;;;;;;25.07;18.40;;;;;;;;;;4994904;28;20411;-49
2021/11/07 09:02:33;;;;;;;30.17;19.00;;;;;;;;;;4994819;28;20408;-48
2021/11/07 09:05:03;;;;;;;24.80;16.70;;;;;;;;;;4994433;28;20403;-48
2021/11/07 09:08:30;;;;;;;29.17;14.70;;;;;;;;;;4994126;28;20419;-48
2021/11/07 09:10:29;;;;;;;33.53;16.87;;;;;;;;;;4977109;28;20438;-48
2021/11/07 09:12:56;;;;;;;19.60;15.13;;;;;;;;;;4994374;28;20398;-48
2021/11/07 09:15:24;;;;;;;25.23;14.23;;;;;;;;;;4994198;28;20429;-50
2021/11/07 09:17:50;;;;;;;16.50;12.70;;;;;;;;;;4993927;28;20938;-48
2021/11/07 09:20:27;;;;;;;22.80;12.30;;;;;;;;;;4994117;28;20439;-48
2021/11/07 09:25:24;;;;;;;17.67;10.10;;;;;;;;;;4994198;28;20431;-49
2021/11/07 09:28:04;;;;;;;16.13;8.33;;;;;;;;;;4993742;28;20438;-48
2021/11/07 09:30:40;;;;;;;12.33;7.53;;;;;;;;;;4994000;28;20485;-49
2021/11/07 09:33:30;;;;;;;11.70;7.10;;;;;;;;;;4993944;28;20903;-48
2021/11/07 09:38:46;;;;;;;12.47;6.37;;;;;;;;;;4993692;28;20423;-48
2021/11/07 09:48:57;;;;;;;8.10;5.10;;;;;;;;;;4974066;28;20940;-49
2021/11/07 09:51:31;;;;;;;18.27;6.10;;;;;;;;;;4974150;28;20433;-48
2021/11/07 09:53:57;;;;;;;15.73;4.43;;;;;;;;;;4974210;28;20415;-48
2021/11/07 09:56:25;;;;;;;12.50;5.03;;;;;;;;;;4973747;28;20928;-49
2021/11/07 09:58:53;;;;;;;9.87;5.10;;;;;;;;;;4974147;28;20416;-49
2021/11/07 10:01:20;;;;;;;18.97;5.83;;;;;;;;;;4973951;28;20424;-48
2021/11/07 10:03:48;;;;;;;8.47;4.77;;;;;;;;;;4973951;28;20407;-48
2021/11/07 10:06:27;;;;;;;11.47;4.63;;;;;;;;;;4973584;28;20425;-49
2021/11/07 10:08:53;;;;;;;15.00;5.03;;;;;;;;;;4973234;28;20446;-51
2021/11/07 10:11:19;;;;;;;20.80;5.60;;;;;;;;;;4973706;28;20751;-48
2021/11/07 10:14:03;;;;;;;12.43;4.93;;;;;;;;;;4973729;28;20401;-48
2021/11/07 10:16:43;;;;;;;8.50;4.80;;;;;;;;;;4973942;28;20443;-51
2021/11/07 10:19:22;;;;;;;5.37;4.53;;;;;;;;;;4973296;28;20405;-47
2021/11/07 10:21:50;;;;;;;13.20;3.77;;;;;;;;;;4987899;28;20906;-48
2021/11/07 10:24:21;;;;;;;14.07;4.30;;;;;;;;;;4992801;28;20404;-50
2021/11/07 10:26:53;;;;;;;14.30;4.10;;;;;;;;;;4992792;28;20449;-48
2021/11/07 10:29:27;;;;;;;15.03;4.50;;;;;;;;;;4992532;28;20796;-48
2021/11/07 10:32:08;;;;;;;16.00;5.03;;;;;;;;;;4992658;28;20415;-48
2021/11/07 10:52:32;;;;;;;10.93;4.00;;;;;;;;;;4992398;28;20444;-47
2021/11/07 10:54:59;;;;;;;9.77;3.40;;;;;;;;;;4992521;28;20425;-48
2021/11/07 10:57:29;;;;;;;14.20;4.90;;;;;;;;;;4992104;28;20445;-53
2021/11/07 11:00:19;;;;;;;11.50;3.13;;;;;;;;;;4992548;28;20494;-51
2021/11/07 11:02:45;;;;;;;13.70;4.07;;;;;;;;;;4992431;28;20431;-51
2021/11/07 11:05:14;;;;;;;10.90;4.50;;;;;;;;;;4992770;28;20895;-51
2021/11/07 11:08:15;;;;;;;11.20;4.20;;;;;;;;;;4992021;28;20414;-49
2021/11/07 11:11:31;;;;;;;8.57;3.57;;;;;;;;;;4984832;28;20395;-48
2021/11/07 11:24:26;;;;;;;9.33;3.17;;;;;;;;;;4992429;28;20426;-48
2021/11/07 11:35:08;;;;;;;6.30;2.93;;;;;;;;;;4992406;28;20439;-48
2021/11/07 11:40:11;;;;;;;12.00;3.70;;;;;;;;;;4991212;28;20545;-48
2021/11/07 11:45:07;;;;;;;6.83;2.93;;;;;;;;;;4991055;28;20525;-50
2021/11/07 11:47:47;;;;;;;10.23;3.27;;;;;;;;;;4991036;28;20378;-49
2021/11/07 11:52:54;;;;;;;6.77;3.07;;;;;;;;;;4991062;28;20427;-48
2021/11/07 12:03:49;;;;;;;9.53;3.80;;;;;;;;;;4994266;28;20453;-47
2021/11/07 12:06:21;;;;;;;13.83;4.17;;;;;;;;;;4994147;28;20387;-47
2021/11/07 12:08:59;;;;;;;20.23;3.63;;;;;;;;;;4993860;28;20444;-47
2021/11/07 12:14:04;;;;;;;11.23;3.90;;;;;;;;;;4994010;28;20386;-48
2021/11/07 12:16:44;;;;;;;8.90;2.57;;;;;;;;;;4994174;28;20395;-46
2021/11/07 12:19:12;;;;;;;9.47;3.70;;;;;;;;;;4993858;28;20379;-48
2021/11/07 12:22:00;;;;;;;11.60;3.60;;;;;;;;;;4994079;28;20383;-47
2021/11/07 12:24:34;;;;;;;9.20;3.50;;;;;;;;;;4994032;28;20428;-48
2021/11/07 12:27:17;;;;;;;6.20;2.93;;;;;;;;;;4993893;28;20407;-47
2021/11/07 12:29:43;;;;;;;11.47;3.20;;;;;;;;;;4993645;28;20455;-47
2021/11/07 12:32:11;;;;;;;9.93;3.27;;;;;;;;;;4993911;28;20414;-47
2021/11/07 12:35:04;;;;;;;11.70;4.23;;;;;;;;;;4993631;28;20379;-47
2021/11/07 12:40:48;;;;;;;14.67;3.57;;;;;;;;;;4993486;28;20397;-50
2021/11/07 12:43:13;;;;;;;15.27;3.43;;;;;;;;;;4993599;28;20382;-47
2021/11/07 12:45:45;;;;;;;7.20;2.70;;;;;;;;;;4994209;28;20416;-48
2021/11/07 12:48:16;;;;;;;13.23;4.87;;;;;;;;;;4994545;28;21281;-47
2021/11/07 12:50:55;;;;;;;17.63;3.80;;;;;;;;;;4994646;28;20771;-47
2021/11/07 12:53:21;;;;;;;7.20;2.53;;;;;;;;;;4994959;28;20409;-47
2021/11/07 12:55:47;;;;;;;9.17;3.40;;;;;;;;;;4994547;28;20430;-47
2021/11/07 12:58:13;;;;;;;6.67;2.50;;;;;;;;;;4994260;28;20384;-48
2021/11/07 13:00:40;;;;;;;9.73;3.33;;;;;;;;;;4994509;28;20402;-47
2021/11/07 13:03:07;;;;;;;7.83;2.90;;;;;;;;;;4994515;28;20898;-47
2021/11/07 13:05:37;;;;;;;10.40;2.87;;;;;;;;;;4994470;28;20761;-48
2021/11/07 13:08:05;;;;;;;8.30;2.90;;;;;;;;;;4993947;28;20390;-47
2021/11/07 13:10:58;;;;;;;9.60;2.93;;;;;;;;;;4993228;28;20374;-48
2021/11/07 13:13:57;;;;;;;9.57;3.00;;;;;;;;;;4994360;28;20382;-48
2021/11/07 13:16:54;;;;;;;5.93;2.13;;;;;;;;;;4993210;28;20507;-48
2021/11/07 13:21:45;;;;;;;13.97;3.53;;;;;;;;;;4994313;28;20972;-47
2021/11/07 13:26:55;;;;;;;16.33;4.30;;;;;;;;;;4993865;28;20480;-48
2021/11/07 13:29:33;;;;;;;7.50;3.00;;;;;;;;;;4993718;28;20450;-48
2021/11/07 13:34:36;;;;;;;12.47;3.43;;;;;;;;;;4993993;28;20422;-49
2021/11/07 13:37:05;;;;;;;5.67;2.40;;;;;;;;;;4993474;28;20790;-48
2021/11/07 13:39:33;;;;;;;6.13;2.70;;;;;;;;;;4993585;28;20414;-50
2021/11/07 13:42:07;;;;;;;11.20;5.10;;;;;;;;;;4993674;28;20406;-47
2021/11/07 13:44:42;;;;;;;7.60;3.07;;;;;;;;;;4993750;28;20414;-47
2021/11/07 13:47:08;;;;;;;7.57;2.80;;;;;;;;;;4993488;28;20515;-48
2021/11/07 13:49:44;;;;;;;8.17;3.27;;;;;;;;;;4993144;28;20543;-48
2021/11/07 13:52:10;;;;;;;10.77;3.20;;;;;;;;;;4993941;28;20765;-49
2021/11/07 13:54:37;;;;;;;10.13;3.10;;;;;;;;;;4993611;28;20404;-47
2021/11/07 13:57:04;;;;;;;12.10;4.30;;;;;;;;;;4993292;28;20426;-47
2021/11/07 13:59:31;;;;;;;7.70;3.00;;;;;;;;;;4993171;28;20399;-47
2021/11/07 14:01:57;;;;;;;7.33;2.67;;;;;;;;;;4993294;28;20400;-48
2021/11/07 14:04:23;;;;;;;11.40;2.83;;;;;;;;;;4993161;28;20393;-47
2021/11/07 14:06:50;;;;;;;12.67;3.00;;;;;;;;;;4993247;28;20427;-49
2021/11/07 14:09:18;;;;;;;12.50;3.00;;;;;;;;;;4993180;28;20490;-48
2021/11/07 14:11:48;;;;;;;12.73;3.13;;;;;;;;;;4993291;28;20397;-47
2021/11/07 14:14:16;;;;;;;10.07;3.00;;;;;;;;;;4993097;28;20410;-47
2021/11/07 14:16:46;;;;;;;12.10;3.10;;;;;;;;;;4992806;28;20416;-48
2021/11/07 14:19:13;;;;;;;10.30;2.90;;;;;;;;;;4992749;28;20410;-47
2021/11/07 14:21:42;;;;;;;8.33;2.80;;;;;;;;;;4992692;28;20387;-47
2021/11/07 14:26:44;;;;;;;5.60;2.47;;;;;;;;;;4993023;28;20824;-46
2021/11/07 14:32:03;;;;;;;7.17;2.83;;;;;;;;;;4992885;28;20410;-47
2021/11/07 14:34:37;;;;;;;7.87;2.80;;;;;;;;;;4992821;28;20396;-48
2021/11/07 14:39:56;;;;;;;9.57;3.30;;;;;;;;;;4992456;28;20418;-47
2021/11/07 14:45:30;;;;;;;15.87;4.53;;;;;;;;;;4992807;28;20419;-47
2021/11/07 14:48:22;;;;;;;9.20;3.50;;;;;;;;;;4992165;28;20395;-49
2021/11/07 14:51:19;;;;;;;9.70;3.30;;;;;;;;;;4992256;28;20424;-46
2021/11/07 14:53:53;;;;;;;9.03;3.37;;;;;;;;;;4992557;28;20396;-46
2021/11/07 14:56:29;;;;;;;5.70;3.27;;;;;;;;;;4992376;28;20420;-47
2021/11/07 15:01:39;;;;;;;10.57;3.67;;;;;;;;;;4987768;28;20508;-46
2021/11/07 15:04:19;;;;;;;5.53;2.87;;;;;;;;;;4991094;28;20499;-48
2021/11/07 15:07:13;;;;;;;11.17;4.40;;;;;;;;;;4990353;28;20435;-49
2021/11/07 15:12:50;;;;;;;14.40;3.43;;;;;;;;;;4991913;28;20641;-47
2021/11/07 15:18:00;;;;;;;10.30;3.23;;;;;;;;;;4992218;28;20918;-50
2021/11/07 15:20:36;;;;;;;7.67;3.27;;;;;;;;;;4987789;28;20424;-47
2021/11/07 15:23:02;;;;;;;9.97;5.20;;;;;;;;;;4992216;28;20412;-48
2021/11/07 15:25:35;;;;;;;8.50;2.80;;;;;;;;;;4992051;28;20506;-50
2021/11/07 15:28:14;;;;;;;8.27;3.97;;;;;;;;;;4991986;28;20401;-49
2021/11/07 15:30:41;;;;;;;11.10;3.50;;;;;;;;;;4992234;28;20443;-49
2021/11/07 15:33:15;;;;;;;6.13;3.10;;;;;;;;;;4992343;28;20793;-49
2021/11/07 15:35:45;;;;;;;7.30;3.10;;;;;;;;;;4995947;28;20432;-50
2021/11/07 15:38:14;;;;;;;13.83;3.70;;;;;;;;;;4995801;28;20491;-50
2021/11/07 15:40:41;;;;;;;16.03;3.70;;;;;;;;;;4996000;28;20800;-49
2021/11/07 15:43:14;;;;;;;10.80;3.50;;;;;;;;;;4995978;28;20411;-49
2021/11/07 15:45:55;;;;;;;7.60;3.40;;;;;;;;;;4995787;28;20435;-48
2021/11/07 15:48:22;;;;;;;9.17;3.30;;;;;;;;;;4995346;28;20467;-49
2021/11/07 15:51:02;;;;;;;7.03;4.20;;;;;;;;;;4995831;28;20891;-49
2021/11/07 15:56:29;;;;;;;13.43;3.47;;;;;;;;;;4994824;28;20442;-48
2021/11/07 16:01:48;;;;;;;6.97;4.00;;;;;;;;;;4995442;28;20506;-48
2021/11/07 16:07:15;;;;;;;5.63;3.60;;;;;;;;;;4995729;28;20434;-48
2021/11/07 16:17:32;;;;;;;8.83;4.07;;;;;;;;;;4994931;28;20470;-49
2021/11/07 16:20:00;;;;;;;6.73;3.50;;;;;;;;;;4995211;28;20423;-51
2021/11/07 16:22:26;;;;;;;12.90;3.90;;;;;;;;;;4995130;28;20888;-51
2021/11/07 16:24:53;;;;;;;5.47;3.50;;;;;;;;;;4995309;28;20412;-49
2021/11/07 16:27:22;;;;;;;9.67;4.13;;;;;;;;;;4994964;28;20534;-50
2021/11/07 16:29:49;;;;;;;18.90;5.20;;;;;;;;;;4994962;28;20456;-50
2021/11/07 16:32:20;;;;;;;11.10;3.67;;;;;;;;;;4994904;28;20487;-49
2021/11/07 16:34:54;;;;;;;8.90;3.57;;;;;;;;;;4995058;28;20891;-48
2021/11/07 16:37:23;;;;;;;18.60;3.90;;;;;;;;;;4994783;28;20502;-48
2021/11/07 16:40:12;;;;;;;18.03;3.73;;;;;;;;;;4994948;28;20491;-49
2021/11/07 16:42:40;;;;;;;19.20;4.70;;;;;;;;;;4994949;28;20407;-48
2021/11/07 16:45:07;;;;;;;14.30;3.70;;;;;;;;;;4994591;28;20403;-49
2021/11/07 16:47:35;;;;;;;8.23;3.10;;;;;;;;;;4994537;28;20852;-49
2021/11/07 16:50:03;;;;;;;9.77;3.93;;;;;;;;;;4993608;28;20491;-49
2021/11/07 16:52:31;;;;;;;14.53;2.90;;;;;;;;;;4994800;28;20403;-49
2021/11/07 16:57:25;;;;;;;8.33;3.60;;;;;;;;;;4994523;28;20529;-49
2021/11/07 16:59:58;;;;;;;8.30;2.50;;;;;;;;;;4994527;28;20953;-49
2021/11/07 17:05:07;;;;;;;13.30;3.03;;;;;;;;;;4994595;28;20409;-48
2021/11/07 17:07:45;;;;;;;9.13;2.93;;;;;;;;;;4993988;28;20394;-49
2021/11/07 17:10:11;;;;;;;16.20;4.03;;;;;;;;;;4994370;28;20488;-48
2021/11/07 17:12:44;;;;;;;6.63;3.80;;;;;;;;;;4994441;28;20406;-50
2021/11/07 17:15:14;;;;;;;7.90;3.40;;;;;;;;;;4994283;28;20450;-50
2021/11/07 17:17:55;;;;;;;6.23;3.37;;;;;;;;;;4994010;28;20417;-48
2021/11/07 17:20:33;;;;;;;8.43;3.30;;;;;;;;;;4994277;28;20395;-48
2021/11/07 17:23:24;;;;;;;7.40;2.87;;;;;;;;;;4994305;28;20497;-50
2021/11/07 17:26:00;;;;;;;5.63;2.93;;;;;;;;;;4993602;28;20907;-49
2021/11/07 17:28:39;;;;;;;5.23;2.63;;;;;;;;;;4993772;28;20481;-49
2021/11/07 17:38:55;;;;;;;7.47;3.53;;;;;;;;;;4993532;28;20421;-48
2021/11/07 17:54:51;;;;;;;7.87;4.20;;;;;;;;;;4993924;28;20423;-48
2021/11/07 17:57:18;;;;;;;8.17;3.87;;;;;;;;;;4992740;28;20438;-48
2021/11/07 17:59:44;;;;;;;7.90;3.70;;;;;;;;;;4993228;28;20964;-49
2021/11/07 18:02:12;;;;;;;18.37;5.03;;;;;;;;;;4993441;28;20842;-48
2021/11/07 18:04:39;;;;;;;6.80;4.53;;;;;;;;;;4992514;28;20405;-48